Whitestown, Indiana
Current Conditions -  °F | °C
As of 1:35 AM on Tuesday 21 Oct 2014 (Local Time) from KTYQ Reporting Station
Overcast Overcast  
Wind Chill: 46°   Ceiling: 6500
Heat Index: 49°   Visibility: 10mi
Dew Point: 45°   Wind: 7mph
Humidity: 84%   Direction: 320°NW
Pressure: 29.97"   Gusts: NA
Location:  40°N, 86.35°W
Report Text: KTYQ 210535Z AUTO 32006KT 10SM OVC065 10/07 A2997 RMK AO2 T00960071
Loading
Personal Weather Stations






























Interactive Weather Map
Tropical Storm Tracking
New forecast layout! Learn more

10-Day Weather Forecast

Advertisements
Track Severe Weather on mobile